createdAt,value
2023-03-31T00:01:15.319Z,100230.50
2023-03-31T00:03:44.520Z,100227.16
2023-03-31T00:06:18.900Z,100208.78
2023-03-31T00:08:51.637Z,100209.28
2023-03-31T00:11:22.043Z,100206.38
2023-03-31T00:13:50.702Z,100196.91
2023-03-31T00:16:19.733Z,100198.09
2023-03-31T00:18:51.044Z,100194.31
2023-03-31T00:21:29.727Z,100183.75
2023-03-31T00:24:04.558Z,100173.97
2023-03-31T00:26:34.754Z,100168.09
2023-03-31T00:29:05.412Z,100166.69
2023-03-31T00:31:34.510Z,100161.50
2023-03-31T00:34:03.060Z,100165.91
2023-03-31T00:36:32.217Z,100152.38
2023-03-31T00:39:08.243Z,100147.13
2023-03-31T00:41:39.301Z,100134.13
2023-03-31T00:44:22.915Z,100132.09
2023-03-31T00:47:13.021Z,100132.91
2023-03-31T00:49:45.636Z,100128.06
2023-03-31T00:52:19.520Z,100115.94
2023-03-31T00:54:58.736Z,100118.56
2023-03-31T00:57:29.425Z,100107.78
2023-03-31T01:00:12.659Z,100108.09
2023-03-31T01:02:52.582Z,100099.06
2023-03-31T01:05:26.716Z,100091.88
2023-03-31T01:07:56.883Z,100097.50
2023-03-31T01:10:25.945Z,100097.88
2023-03-31T01:12:56.034Z,100093.06
2023-03-31T01:15:24.517Z,100090.94
2023-03-31T01:17:55.919Z,100085.31
2023-03-31T01:20:48.378Z,100082.47
2023-03-31T01:23:38.585Z,100071.25
2023-03-31T01:26:50.761Z,100066.69
2023-03-31T01:29:49.127Z,100057.84
2023-03-31T01:32:48.239Z,100062.22
2023-03-31T01:36:12.306Z,100043.00
2023-03-31T01:39:01.197Z,100041.41
2023-03-31T01:41:48.712Z,100048.50
2023-03-31T01:44:26.162Z,100035.72
2023-03-31T01:47:02.320Z,100041.84
2023-03-31T01:49:42.126Z,100019.38
2023-03-31T01:52:44.060Z,100024.94
2023-03-31T01:55:19.670Z,100012.53
2023-03-31T01:57:54.491Z,100001.72
2023-03-31T02:00:29.984Z,99986.78
2023-03-31T02:03:17.234Z,99987.28
2023-03-31T02:06:12.579Z,99988.34
2023-03-31T02:08:47.530Z,99969.56
2023-03-31T02:11:16.877Z,99955.47
2023-03-31T02:13:47.246Z,99940.28
2023-03-31T02:16:24.585Z,99933.69
2023-03-31T02:19:03.997Z,99918.84
2023-03-31T02:21:34.687Z,99911.31
2023-03-31T02:24:09.413Z,99907.81
2023-03-31T02:26:49.407Z,99894.34
2023-03-31T02:29:17.972Z,99895.03
2023-03-31T02:31:52.798Z,99886.75
2023-03-31T02:34:21.790Z,99885.41
2023-03-31T02:36:50.728Z,99868.09
2023-03-31T02:39:24.970Z,99836.56
2023-03-31T02:41:54.642Z,99845.69
2023-03-31T02:44:23.714Z,99844.06
2023-03-31T02:46:52.647Z,99839.84
2023-03-31T02:49:21.751Z,99829.97
2023-03-31T02:52:15.859Z,99816.97
2023-03-31T02:54:59.624Z,99810.41
2023-03-31T02:57:41.625Z,99790.94
2023-03-31T03:00:32.101Z,99786.63
2023-03-31T03:03:16.515Z,99785.00
2023-03-31T03:05:54.907Z,99774.44
2023-03-31T03:08:37.702Z,99765.41
2023-03-31T03:11:32.180Z,99765.41
2023-03-31T03:14:21.238Z,99761.94
2023-03-31T03:17:23.603Z,99747.59
2023-03-31T03:19:58.818Z,99759.38
2023-03-31T03:22:27.632Z,99753.72
2023-03-31T03:24:56.292Z,99753.31
2023-03-31T03:27:24.815Z,99747.03
2023-03-31T03:29:53.218Z,99745.19
2023-03-31T03:32:21.666Z,99748.09
2023-03-31T03:34:50.230Z,99744.09
2023-03-31T03:37:19.585Z,99743.28
2023-03-31T03:39:48.140Z,99730.34
2023-03-31T03:42:16.897Z,99722.13
2023-03-31T03:44:45.414Z,99710.56
2023-03-31T03:47:14.106Z,99706.88
2023-03-31T03:49:42.672Z,99699.25
2023-03-31T03:52:11.152Z,99699.94
2023-03-31T03:54:39.571Z,99690.69
2023-03-31T03:57:07.963Z,99687.13
2023-03-31T03:59:36.406Z,99669.72
2023-03-31T04:02:04.954Z,99657.97
2023-03-31T04:04:33.637Z,99654.69
2023-03-31T04:07:02.201Z,99647.25
2023-03-31T04:09:30.923Z,99653.59
2023-03-31T04:11:59.439Z,99637.81
2023-03-31T04:14:27.915Z,99630.69
2023-03-31T04:16:58.516Z,99628.31
2023-03-31T04:19:27.602Z,99622.91
2023-03-31T04:22:02.664Z,99613.53
2023-03-31T04:24:32.790Z,99613.47
2023-03-31T04:27:03.206Z,99601.84
2023-03-31T04:29:33.617Z,99590.66
2023-03-31T04:32:03.011Z,99587.03
2023-03-31T04:34:37.415Z,99580.88
2023-03-31T04:37:06.040Z,99571.03
2023-03-31T04:39:34.719Z,99564.47
2023-03-31T04:42:03.369Z,99561.25
2023-03-31T04:44:31.817Z,99561.88
2023-03-31T04:47:03.248Z,99550.22
2023-03-31T04:49:33.685Z,99536.28
2023-03-31T04:52:02.232Z,99532.41
2023-03-31T04:54:30.776Z,99527.38
2023-03-31T04:56:59.218Z,99539.97
2023-03-31T04:59:27.735Z,99530.31
2023-03-31T05:01:56.293Z,99529.56
2023-03-31T05:04:24.844Z,99526.84
2023-03-31T05:06:53.508Z,99526.56
2023-03-31T05:09:22.158Z,99519.09
2023-03-31T05:11:50.652Z,99507.97
2023-03-31T05:14:19.482Z,99499.91
2023-03-31T05:16:47.956Z,99487.47
2023-03-31T05:19:18.318Z,99484.47
2023-03-31T05:21:46.817Z,99481.97
2023-03-31T05:24:15.272Z,99472.94
2023-03-31T05:26:48.445Z,99465.25
2023-03-31T05:29:16.874Z,99457.59
2023-03-31T05:31:45.981Z,99458.28
2023-03-31T05:34:15.823Z,99455.81
2023-03-31T05:36:44.416Z,99451.38
2023-03-31T05:39:12.791Z,99453.84
2023-03-31T05:41:41.245Z,99449.75
2023-03-31T05:44:09.736Z,99453.63
2023-03-31T05:46:38.559Z,99452.06
2023-03-31T05:49:08.158Z,99448.66
2023-03-31T05:51:36.686Z,99449.59
2023-03-31T05:54:06.429Z,99447.84
2023-03-31T05:56:35.043Z,99441.72
2023-03-31T05:59:05.234Z,99443.84
2023-03-31T06:01:34.000Z,99436.06
2023-03-31T06:04:02.546Z,99419.16
2023-03-31T06:06:34.026Z,99406.81
2023-03-31T06:09:05.070Z,99379.59
2023-03-31T06:11:33.470Z,99384.31
2023-03-31T06:14:01.892Z,99399.41
2023-03-31T06:16:30.588Z,99419.88
2023-03-31T06:18:59.180Z,99411.00
2023-03-31T06:21:27.710Z,99400.31
2023-03-31T06:23:58.152Z,99394.13
2023-03-31T06:26:27.875Z,99382.47
2023-03-31T06:28:56.469Z,99386.25
2023-03-31T06:31:25.528Z,99375.97
2023-03-31T06:33:54.053Z,99372.38
2023-03-31T06:36:22.803Z,99374.69
2023-03-31T06:38:51.435Z,99381.16
2023-03-31T06:41:21.131Z,99371.22
2023-03-31T06:43:50.023Z,99369.16
2023-03-31T06:46:18.862Z,99375.19
2023-03-31T06:48:47.421Z,99368.41
2023-03-31T06:51:16.393Z,99366.22
2023-03-31T06:53:44.883Z,99361.19
2023-03-31T06:56:13.368Z,99356.03
2023-03-31T06:58:41.914Z,99350.97
2023-03-31T07:01:11.833Z,99350.81
2023-03-31T07:03:40.875Z,99364.34
2023-03-31T07:06:09.425Z,99359.16
2023-03-31T07:08:37.910Z,99363.31
2023-03-31T07:11:06.739Z,99345.81
2023-03-31T07:13:35.524Z,99355.06
2023-03-31T07:16:05.242Z,99355.84
2023-03-31T07:18:35.660Z,99322.06
2023-03-31T07:21:07.952Z,99376.97
2023-03-31T07:23:38.077Z,99345.50
2023-03-31T07:26:06.722Z,99363.63
2023-03-31T07:28:35.343Z,99345.31
2023-03-31T07:31:10.965Z,99350.88
2023-03-31T07:33:39.782Z,99334.09
2023-03-31T07:36:13.323Z,99342.88
2023-03-31T07:38:46.755Z,99356.16
2023-03-31T07:41:18.944Z,99338.25
2023-03-31T07:43:47.622Z,99375.66
2023-03-31T07:46:24.989Z,99367.59
2023-03-31T07:48:54.902Z,99350.69
2023-03-31T07:51:26.560Z,99349.47
2023-03-31T07:53:55.181Z,99344.28
2023-03-31T07:56:24.905Z,99337.47
2023-03-31T07:58:56.076Z,99343.19
2023-03-31T08:01:26.646Z,99334.59
2023-03-31T08:03:56.101Z,99339.38
2023-03-31T08:06:26.822Z,99326.38
2023-03-31T08:08:56.218Z,99327.75
2023-03-31T08:11:25.996Z,99320.19
2023-03-31T08:13:54.619Z,99323.91
2023-03-31T08:16:23.171Z,99323.56
2023-03-31T08:18:51.668Z,99321.00
2023-03-31T08:21:22.281Z,99310.03
2023-03-31T08:23:53.574Z,99316.72
2023-03-31T08:26:24.332Z,99317.09
2023-03-31T08:28:53.896Z,99315.44
2023-03-31T08:31:25.984Z,99307.63
2023-03-31T08:33:56.063Z,99311.38
2023-03-31T08:36:25.997Z,99296.22
2023-03-31T08:38:54.773Z,99304.13
2023-03-31T08:41:41.728Z,99315.44
2023-03-31T08:44:16.500Z,99314.13
2023-03-31T08:46:45.340Z,99306.69
2023-03-31T08:49:16.941Z,99328.50
2023-03-31T08:51:50.546Z,99304.00
2023-03-31T08:54:32.880Z,99304.84
2023-03-31T08:57:03.887Z,99310.00
2023-03-31T08:59:37.565Z,99307.28
2023-03-31T09:02:13.557Z,99311.44
2023-03-31T09:05:12.912Z,99314.44
2023-03-31T09:07:48.912Z,99311.22
2023-03-31T09:10:35.962Z,99312.25
2023-03-31T09:13:10.441Z,99309.19
2023-03-31T09:16:02.596Z,99306.66
2023-03-31T09:18:36.740Z,99310.16
2023-03-31T09:21:13.220Z,99307.56
2023-03-31T09:23:53.793Z,99299.44
2023-03-31T09:26:27.498Z,99288.53
2023-03-31T09:28:59.347Z,99289.56
2023-03-31T09:31:28.555Z,99285.13
2023-03-31T09:34:01.864Z,99278.50
2023-03-31T09:36:30.862Z,99285.81
2023-03-31T09:38:59.331Z,99283.03
2023-03-31T09:41:27.880Z,99279.53
2023-03-31T09:43:56.459Z,99277.94
2023-03-31T09:46:30.941Z,99284.53
2023-03-31T09:49:15.404Z,99279.53
2023-03-31T09:51:52.872Z,99274.94
2023-03-31T09:54:32.095Z,99270.66
2023-03-31T09:57:00.688Z,99275.44
2023-03-31T09:59:34.874Z,99266.91
2023-03-31T10:02:28.476Z,99259.66
2023-03-31T10:04:57.187Z,99261.91
2023-03-31T10:07:26.399Z,99261.06
2023-03-31T10:09:56.396Z,99267.00
2023-03-31T10:12:29.224Z,99275.63
2023-03-31T10:15:28.029Z,99266.78
2023-03-31T10:17:58.646Z,99274.56
2023-03-31T10:20:30.049Z,99247.56
2023-03-31T10:23:03.311Z,99253.09
2023-03-31T10:25:33.842Z,99251.31
2023-03-31T10:28:03.146Z,99250.38
2023-03-31T10:30:37.971Z,99247.00
2023-03-31T10:33:23.161Z,99246.22
2023-03-31T10:36:15.588Z,99245.09
2023-03-31T10:38:48.180Z,99232.50
2023-03-31T10:41:25.801Z,99229.28
2023-03-31T10:43:56.604Z,99232.59
2023-03-31T10:46:52.673Z,99233.53
2023-03-31T10:49:21.183Z,99241.41
2023-03-31T10:52:01.246Z,99234.59
2023-03-31T10:54:29.708Z,99223.25
2023-03-31T10:57:01.642Z,99220.47
2023-03-31T10:59:47.912Z,99227.66
2023-03-31T11:02:35.475Z,99204.53
2023-03-31T11:05:22.569Z,99218.72
2023-03-31T11:08:13.392Z,99216.47
2023-03-31T11:10:58.855Z,99223.78
2023-03-31T11:13:41.199Z,99211.47
2023-03-31T11:16:19.293Z,99214.78
2023-03-31T11:18:56.917Z,99229.16
2023-03-31T11:21:52.288Z,99207.31
2023-03-31T11:24:40.661Z,99204.81
2023-03-31T11:27:44.660Z,99203.41
2023-03-31T11:30:25.253Z,99195.19
2023-03-31T11:33:02.811Z,99185.94
2023-03-31T11:35:50.925Z,99192.41
2023-03-31T11:38:48.062Z,99192.16
2023-03-31T11:41:23.293Z,99184.41
2023-03-31T11:43:55.815Z,99183.19
2023-03-31T11:46:30.961Z,99188.81
2023-03-31T11:49:06.560Z,99190.25
2023-03-31T11:52:17.874Z,99191.31
2023-03-31T11:54:48.973Z,99177.72
2023-03-31T11:57:23.957Z,99174.78
2023-03-31T12:00:06.450Z,99177.66
2023-03-31T12:02:57.908Z,99165.63
2023-03-31T12:05:30.660Z,99167.91
2023-03-31T12:08:33.126Z,99163.00
2023-03-31T12:11:13.318Z,99168.19
2023-03-31T12:13:53.291Z,99168.00
2023-03-31T12:16:46.234Z,99168.94
2023-03-31T12:19:22.566Z,99175.56
2023-03-31T12:22:14.402Z,99157.81
2023-03-31T12:24:43.027Z,99142.75
2023-03-31T12:27:33.606Z,99140.75
2023-03-31T12:30:10.353Z,99135.09
2023-03-31T12:32:48.869Z,99129.75
2023-03-31T12:35:20.213Z,99131.00
2023-03-31T12:38:00.096Z,99131.91
2023-03-31T12:40:54.950Z,99115.91
2023-03-31T12:43:43.839Z,99111.84
2023-03-31T12:46:30.567Z,99104.22
2023-03-31T12:49:17.859Z,99100.50
2023-03-31T12:51:55.277Z,99091.97
2023-03-31T12:54:48.822Z,99095.50
2023-03-31T12:57:27.484Z,99096.06
2023-03-31T13:00:12.183Z,99077.66
2023-03-31T13:02:41.319Z,99085.56
2023-03-31T13:05:37.961Z,99096.94
2023-03-31T13:08:10.543Z,99100.56
2023-03-31T13:10:59.215Z,99105.28
2023-03-31T13:13:27.925Z,99114.41
2023-03-31T13:15:59.791Z,99094.53
2023-03-31T13:18:33.564Z,99104.09
2023-03-31T13:21:08.304Z,99093.75
2023-03-31T13:23:37.839Z,99088.94
2023-03-31T13:26:06.954Z,99094.78
2023-03-31T13:28:43.844Z,99091.75
2023-03-31T13:31:14.690Z,99084.31
2023-03-31T13:33:57.532Z,99084.00
2023-03-31T13:36:32.431Z,99095.25
2023-03-31T13:39:16.583Z,99101.81
2023-03-31T13:41:53.495Z,99109.03
2023-03-31T13:44:40.632Z,99085.00
2023-03-31T13:47:35.076Z,99093.38
2023-03-31T13:50:31.641Z,99097.16
2023-03-31T13:53:27.968Z,99087.97
2023-03-31T13:56:24.323Z,99077.53
2023-03-31T13:59:30.009Z,99077.66
2023-03-31T14:02:06.727Z,99091.03
2023-03-31T14:04:41.113Z,99078.00
2023-03-31T14:07:16.967Z,99091.91
2023-03-31T14:09:52.056Z,99073.53
2023-03-31T14:12:31.395Z,99069.31
2023-03-31T14:15:00.322Z,99079.66
2023-03-31T14:17:35.926Z,99069.16
2023-03-31T14:20:22.945Z,99071.88
2023-03-31T14:23:32.180Z,99062.84
2023-03-31T14:26:34.621Z,99065.16
2023-03-31T14:29:15.277Z,99062.09
2023-03-31T14:32:03.225Z,99054.47
2023-03-31T14:34:32.205Z,99062.09
2023-03-31T14:37:04.696Z,99059.69
2023-03-31T14:39:40.451Z,99051.63
2023-03-31T14:42:15.892Z,99062.75
2023-03-31T14:44:47.866Z,99051.41
2023-03-31T14:47:21.963Z,99058.53
2023-03-31T14:50:12.930Z,99049.13
2023-03-31T14:52:50.062Z,99059.75
2023-03-31T14:55:26.503Z,99048.44
2023-03-31T14:58:02.951Z,99047.06
2023-03-31T15:00:34.435Z,99060.81
2023-03-31T15:03:07.743Z,99053.97
2023-03-31T15:05:39.708Z,99055.09
2023-03-31T15:08:14.140Z,99047.59
2023-03-31T15:10:54.071Z,99048.34
2023-03-31T15:13:33.967Z,99047.84
2023-03-31T15:16:41.914Z,99055.53
2023-03-31T15:19:18.798Z,99048.44
2023-03-31T15:21:56.156Z,99045.56
2023-03-31T15:24:24.761Z,99041.75
2023-03-31T15:27:15.007Z,99047.69
2023-03-31T15:29:51.149Z,99038.03
2023-03-31T15:32:27.199Z,99041.13
2023-03-31T15:35:02.443Z,99040.28
2023-03-31T15:37:44.004Z,99039.53
2023-03-31T15:40:24.464Z,99031.25
2023-03-31T15:43:27.841Z,99050.72
2023-03-31T15:45:58.668Z,99036.81
2023-03-31T15:48:33.391Z,99033.81
2023-03-31T15:51:20.807Z,99038.22
2023-03-31T15:53:55.899Z,99030.84
2023-03-31T15:56:44.457Z,99013.88
2023-03-31T15:59:55.350Z,99031.13
2023-03-31T16:02:29.057Z,99010.75
2023-03-31T16:04:59.492Z,99023.09
2023-03-31T16:07:34.680Z,99016.53
2023-03-31T16:10:08.818Z,99023.47
2023-03-31T16:12:49.201Z,99013.56
2023-03-31T16:15:28.025Z,99016.84
2023-03-31T16:18:10.079Z,99009.78
2023-03-31T16:20:46.054Z,99016.84
2023-03-31T16:23:18.097Z,99012.94
2023-03-31T16:25:47.335Z,99019.66
2023-03-31T16:28:21.950Z,99021.31
2023-03-31T16:30:50.592Z,99022.34
2023-03-31T16:33:23.087Z,99009.97
2023-03-31T16:35:55.916Z,99006.84
2023-03-31T16:38:26.650Z,99004.19
2023-03-31T16:40:58.873Z,99001.59
2023-03-31T16:43:29.008Z,99004.78
2023-03-31T16:45:59.383Z,99006.25
2023-03-31T16:48:30.058Z,99004.72
2023-03-31T16:50:59.034Z,99001.66
2023-03-31T16:53:36.105Z,99001.81
2023-03-31T16:56:09.709Z,99021.56
2023-03-31T16:58:38.984Z,99007.94
2023-03-31T17:01:08.924Z,99009.06
2023-03-31T17:03:39.720Z,99005.50
2023-03-31T17:06:11.324Z,99003.47
2023-03-31T17:08:40.368Z,99018.69
2023-03-31T17:11:12.607Z,99014.94
2023-03-31T17:13:42.570Z,99006.81
2023-03-31T17:18:43.795Z,99016.53
2023-03-31T17:21:14.862Z,99013.88
2023-03-31T17:23:43.326Z,99012.91
2023-03-31T17:26:13.054Z,99011.75
2023-03-31T17:28:42.539Z,99011.91
2023-03-31T17:31:20.503Z,99009.47
2023-03-31T17:33:49.142Z,99015.63
2023-03-31T17:36:17.837Z,99008.59
2023-03-31T17:38:46.345Z,99010.75
2023-03-31T17:41:15.612Z,99007.34
2023-03-31T17:43:45.613Z,99007.22
2023-03-31T17:46:14.219Z,98993.66
2023-03-31T17:48:43.622Z,98993.38
2023-03-31T17:51:18.267Z,98990.03
2023-03-31T17:53:47.888Z,99000.88
2023-03-31T17:56:17.606Z,98992.97
2023-03-31T17:58:46.761Z,98982.88
2023-03-31T18:01:15.421Z,98988.50
2023-03-31T18:03:46.150Z,99002.78
2023-03-31T18:06:15.339Z,98998.50
2023-03-31T18:08:44.444Z,98996.59
2023-03-31T18:11:13.387Z,98990.03
2023-03-31T18:13:42.018Z,98989.06
2023-03-31T18:16:12.725Z,98996.59
2023-03-31T18:18:42.294Z,99005.97
2023-03-31T18:21:13.108Z,98999.09
2023-03-31T18:23:41.712Z,98982.38
2023-03-31T18:26:12.429Z,98985.31
2023-03-31T18:28:41.261Z,98991.28
2023-03-31T18:31:10.633Z,98996.50
2023-03-31T18:33:39.913Z,98993.50
2023-03-31T18:36:15.243Z,98990.94
2023-03-31T18:38:45.250Z,98994.22
2023-03-31T18:41:14.892Z,98997.16
2023-03-31T18:43:43.571Z,98997.94
2023-03-31T18:46:11.984Z,98989.69
2023-03-31T18:48:42.033Z,98993.47
2023-03-31T18:51:11.064Z,98996.91
2023-03-31T18:53:39.670Z,98994.44
2023-03-31T18:56:08.106Z,99003.44
2023-03-31T18:58:37.342Z,99002.31
2023-03-31T19:01:05.965Z,98992.78
2023-03-31T19:03:34.510Z,99001.09
2023-03-31T19:06:10.214Z,99003.31
2023-03-31T19:08:39.117Z,99009.06
2023-03-31T19:11:13.125Z,98998.91
2023-03-31T19:13:42.879Z,99011.13
2023-03-31T19:16:13.129Z,99017.34
2023-03-31T19:18:43.123Z,99002.59
2023-03-31T19:21:11.969Z,99008.47
2023-03-31T19:23:40.643Z,99005.69
2023-03-31T19:26:13.437Z,99008.72
2023-03-31T19:28:42.344Z,99008.16
2023-03-31T19:31:11.240Z,99022.41
2023-03-31T19:33:39.648Z,99024.38
2023-03-31T19:36:08.252Z,99015.56
2023-03-31T19:38:36.760Z,99015.25
2023-03-31T19:41:05.954Z,99004.16
2023-03-31T19:43:34.597Z,99013.31
2023-03-31T19:46:03.481Z,99019.88
2023-03-31T19:48:33.586Z,99013.47
2023-03-31T19:51:06.268Z,99003.78
2023-03-31T19:53:38.332Z,99017.00
2023-03-31T19:56:12.766Z,99010.41
2023-03-31T19:58:41.341Z,99026.44
2023-03-31T20:01:27.330Z,99011.38
2023-03-31T20:03:56.496Z,99005.75
2023-03-31T20:06:28.442Z,99000.00
2023-03-31T20:09:00.912Z,99003.81
2023-03-31T20:11:31.978Z,98996.16
2023-03-31T20:14:01.837Z,98998.50
2023-03-31T20:16:31.232Z,98992.31
2023-03-31T20:19:04.279Z,98987.56
2023-03-31T20:21:35.652Z,98988.50
2023-03-31T20:24:05.642Z,99002.31
2023-03-31T20:26:34.790Z,98991.22
2023-03-31T20:29:04.041Z,99001.28
2023-03-31T20:31:37.391Z,98992.88
2023-03-31T20:34:12.475Z,98986.16
2023-03-31T20:36:43.226Z,98992.63
2023-03-31T20:39:14.710Z,98992.78
2023-03-31T20:41:43.600Z,98978.25
2023-03-31T20:44:15.829Z,98989.63
2023-03-31T20:46:45.019Z,98980.06
2023-03-31T20:49:13.913Z,98988.53
2023-03-31T20:51:42.649Z,98992.50
2023-03-31T20:54:11.833Z,98989.50
2023-03-31T20:56:41.354Z,98988.53
2023-03-31T20:59:12.816Z,98998.91
2023-03-31T21:01:42.537Z,98991.88
2023-03-31T21:04:11.875Z,98995.06
2023-03-31T21:06:43.775Z,98991.28
2023-03-31T21:09:13.598Z,98994.53
2023-03-31T21:11:42.139Z,98981.44
2023-03-31T21:14:13.231Z,98988.47
2023-03-31T21:16:41.734Z,99003.00
2023-03-31T21:19:11.062Z,98998.06
2023-03-31T21:21:41.193Z,98992.59
2023-03-31T21:24:12.325Z,99000.31
2023-03-31T21:26:40.789Z,98993.75
2023-03-31T21:29:09.273Z,98999.81
2023-03-31T21:31:38.007Z,99003.00
2023-03-31T21:34:06.454Z,98999.94
2023-03-31T21:36:34.998Z,98996.97
2023-03-31T21:39:05.006Z,98994.78
2023-03-31T21:41:33.567Z,98993.53
2023-03-31T21:44:03.237Z,98997.34
2023-03-31T21:46:33.506Z,99001.69
2023-03-31T21:49:02.874Z,99002.19
2023-03-31T21:51:31.480Z,98989.41
2023-03-31T21:53:59.906Z,98984.09
2023-03-31T21:56:31.844Z,98991.22
2023-03-31T21:59:02.388Z,98992.50
2023-03-31T22:01:31.494Z,98995.53
2023-03-31T22:04:00.587Z,98995.25
2023-03-31T22:06:29.395Z,98989.63
2023-03-31T22:08:57.888Z,99006.75
2023-03-31T22:11:27.027Z,98986.00
2023-03-31T22:13:56.673Z,98994.13
2023-03-31T22:16:25.286Z,98997.97
2023-03-31T22:18:54.629Z,98995.63
2023-03-31T22:21:25.490Z,98997.63
2023-03-31T22:23:56.760Z,98998.63
2023-03-31T22:26:27.060Z,99000.88
2023-03-31T22:28:55.909Z,99011.56
2023-03-31T22:31:26.313Z,99000.06
2023-03-31T22:33:54.950Z,98999.59
2023-03-31T22:36:23.371Z,99008.28
2023-03-31T22:38:51.818Z,98997.44
2023-03-31T22:41:20.502Z,98990.09
2023-03-31T22:43:48.929Z,98993.13
2023-03-31T22:46:17.334Z,99008.13
2023-03-31T22:48:51.066Z,99004.25
2023-03-31T22:51:19.588Z,98999.25
2023-03-31T22:53:52.571Z,99010.59
2023-03-31T22:56:23.021Z,98996.47
2023-03-31T22:58:52.583Z,99003.81
2023-03-31T23:01:21.829Z,99010.97
2023-03-31T23:03:50.690Z,99010.38
2023-03-31T23:06:19.212Z,99006.13
2023-03-31T23:08:50.816Z,99002.53
2023-03-31T23:11:19.385Z,98996.41
2023-03-31T23:13:47.991Z,99006.16
2023-03-31T23:16:18.047Z,99001.44
2023-03-31T23:18:48.358Z,98991.00
2023-03-31T23:21:19.514Z,98993.97
2023-03-31T23:23:51.242Z,99009.56
2023-03-31T23:26:21.270Z,99003.59
2023-03-31T23:28:50.666Z,98998.97
2023-03-31T23:31:22.175Z,99004.25
2023-03-31T23:33:50.795Z,99001.50
2023-03-31T23:36:21.202Z,98996.91
2023-03-31T23:38:52.961Z,98985.88
2023-03-31T23:41:22.685Z,98991.88
2023-03-31T23:43:51.238Z,99001.94
2023-03-31T23:46:19.775Z,98990.22
2023-03-31T23:48:48.587Z,98999.47
2023-03-31T23:51:18.783Z,98996.84
2023-03-31T23:53:47.427Z,98996.69
2023-03-31T23:56:15.846Z,98993.38
2023-03-31T23:58:45.158Z,98992.91
